Time;durP1;ratioP1;P1;durP2;ratioP2;P2;SDS_P1;SDS_P2;PMS_P1;PMS_P2;Temp;Humidity;BMP_temperature;BMP_pressure;BME280_temperature;BME280_humidity;BME280_pressure;Samples;Min_cycle;Max_cycle;Signal;HPM_P1;HPM_P2
2024/02/11 00:01:28;;;;;;;34.10;21.70;;;8.80;99.90;;;;;;5057659;28;20221;-82
2024/02/11 00:03:55;;;;;;;34.67;21.83;;;8.90;99.90;;;;;;5053847;28;20213;-82
2024/02/11 00:06:24;;;;;;;35.63;22.17;;;8.80;99.90;;;;;;5060206;28;20215;-80
2024/02/11 00:08:51;;;;;;;37.40;22.80;;;8.80;99.90;;;;;;5055851;28;20231;-82
2024/02/11 00:11:18;;;;;;;37.73;21.97;;;8.80;99.90;;;;;;5055652;28;20227;-82
2024/02/11 00:13:45;;;;;;;38.87;22.90;;;8.80;99.90;;;;;;5056761;28;20638;-81
2024/02/11 00:16:14;;;;;;;38.53;23.13;;;8.90;99.90;;;;;;5058811;28;20229;-81
2024/02/11 00:18:42;;;;;;;34.27;20.70;;;8.90;99.90;;;;;;5051313;28;20230;-83
2024/02/11 00:21:09;;;;;;;36.27;23.20;;;8.90;99.90;;;;;;5055872;28;20736;-81
2024/02/11 00:23:36;;;;;;;36.70;23.03;;;8.90;99.90;;;;;;5061358;28;20682;-81
2024/02/11 00:26:03;;;;;;;39.17;24.33;;;8.90;99.90;;;;;;5057512;28;20225;-82
2024/02/11 00:28:30;;;;;;;36.57;23.50;;;8.90;99.90;;;;;;5052840;28;20310;-82
2024/02/11 00:30:56;;;;;;;35.93;22.57;;;8.90;99.90;;;;;;5051128;28;20218;-82
2024/02/11 00:33:24;;;;;;;33.90;22.70;;;8.90;99.90;;;;;;5055390;28;20199;-81
2024/02/11 00:35:52;;;;;;;33.60;21.00;;;9.00;99.90;;;;;;5061825;28;20198;-81
2024/02/11 00:38:19;;;;;;;37.10;24.20;;;9.00;99.90;;;;;;5057203;28;20281;-81
2024/02/11 00:40:46;;;;;;;38.03;22.23;;;9.00;99.90;;;;;;5050489;28;20202;-79
2024/02/11 00:43:15;;;;;;;39.17;24.93;;;9.00;99.90;;;;;;5055107;28;20250;-82
2024/02/11 00:45:41;;;;;;;37.13;23.13;;;9.00;99.90;;;;;;5058832;28;20585;-81
2024/02/11 00:48:10;;;;;;;34.80;22.27;;;9.10;99.90;;;;;;5054715;28;20768;-81
2024/02/11 00:50:38;;;;;;;38.47;25.10;;;9.10;99.90;;;;;;5059734;28;20701;-80
2024/02/11 00:53:05;;;;;;;39.03;23.57;;;9.10;99.90;;;;;;5049833;28;20570;-81
2024/02/11 00:55:33;;;;;;;37.23;23.47;;;9.20;99.90;;;;;;5053862;28;20206;-81
2024/02/11 00:58:01;;;;;;;38.17;22.80;;;9.00;99.90;;;;;;5052830;28;20276;-81
2024/02/11 01:00:28;;;;;;;37.70;23.73;;;9.10;99.90;;;;;;5056640;28;20664;-81
2024/02/11 01:02:55;;;;;;;35.43;23.83;;;9.10;99.90;;;;;;5055765;28;20222;-81
2024/02/11 01:05:22;;;;;;;33.90;23.00;;;9.00;99.90;;;;;;5054569;28;20498;-81
2024/02/11 01:07:51;;;;;;;36.10;23.60;;;9.30;99.90;;;;;;5049615;28;20272;-81
2024/02/11 01:10:18;;;;;;;36.07;21.90;;;9.00;99.90;;;;;;5052321;28;20207;-83
2024/02/11 01:12:46;;;;;;;34.63;24.33;;;9.10;99.90;;;;;;5048005;28;20286;-82
2024/02/11 01:15:16;;;;;;;37.07;22.93;;;9.10;99.90;;;;;;5053998;28;20667;-81
2024/02/11 01:17:43;;;;;;;31.60;22.13;;;9.10;99.90;;;;;;5047992;28;20224;-82
2024/02/11 01:20:13;;;;;;;32.47;22.13;;;9.10;99.90;;;;;;5051322;28;20267;-82
2024/02/11 01:22:42;;;;;;;34.73;22.73;;;9.00;99.90;;;;;;5050263;28;20195;-83
2024/02/11 01:25:11;;;;;;;32.87;22.60;;;9.10;99.90;;;;;;5049460;28;20585;-82
2024/02/11 01:27:38;;;;;;;34.67;22.13;;;9.10;99.90;;;;;;5053535;28;20223;-82
2024/02/11 01:30:07;;;;;;;35.30;23.63;;;9.00;99.90;;;;;;5050050;28;20215;-82
2024/02/11 01:32:33;;;;;;;35.13;21.93;;;9.10;99.90;;;;;;5045673;28;20223;-81
2024/02/11 01:35:00;;;;;;;34.50;21.53;;;9.10;99.90;;;;;;5041690;28;20210;-80
2024/02/11 01:37:27;;;;;;;34.40;22.30;;;9.10;99.90;;;;;;5046908;28;20233;-82
2024/02/11 01:39:54;;;;;;;33.60;23.43;;;9.10;99.90;;;;;;5044437;28;20598;-83
2024/02/11 01:42:22;;;;;;;31.37;20.67;;;9.10;99.90;;;;;;5044879;28;20195;-80
2024/02/11 01:44:49;;;;;;;31.90;21.63;;;9.10;99.90;;;;;;5045681;28;20258;-83
2024/02/11 01:47:16;;;;;;;33.13;22.00;;;9.10;99.90;;;;;;5043654;28;20215;-82
2024/02/11 01:49:43;;;;;;;32.27;21.77;;;9.10;99.90;;;;;;5044015;28;20834;-82
2024/02/11 01:52:11;;;;;;;33.33;22.37;;;9.10;99.90;;;;;;5045133;28;20598;-81
2024/02/11 01:54:40;;;;;;;32.53;22.40;;;9.10;99.90;;;;;;5045756;28;20206;-81
2024/02/11 01:57:07;;;;;;;35.87;23.00;;;9.20;99.90;;;;;;5054903;28;20203;-83
2024/02/11 01:59:38;;;;;;;30.97;21.03;;;9.20;99.90;;;;;;5055430;28;20199;-82
2024/02/11 02:02:09;;;;;;;34.43;22.23;;;9.10;99.90;;;;;;5049977;28;20249;-84
2024/02/11 02:04:37;;;;;;;32.03;22.00;;;9.10;99.90;;;;;;5063660;28;20278;-82
2024/02/11 02:07:05;;;;;;;29.10;20.27;;;9.10;99.90;;;;;;5056791;28;20232;-84
2024/02/11 02:09:32;;;;;;;28.83;19.33;;;9.10;99.90;;;;;;5050842;28;20214;-82
2024/02/11 02:12:02;;;;;;;31.67;21.70;;;9.10;99.90;;;;;;5053708;28;20657;-82
2024/02/11 02:14:29;;;;;;;31.13;21.17;;;9.10;99.90;;;;;;5056377;28;20199;-82
2024/02/11 02:16:58;;;;;;;33.57;22.10;;;9.10;99.90;;;;;;5057516;28;20207;-83
2024/02/11 02:19:25;;;;;;;32.27;21.70;;;9.10;99.90;;;;;;5056029;28;20230;-82
2024/02/11 02:21:56;;;;;;;30.00;21.50;;;9.10;99.90;;;;;;5055592;28;20294;-83
2024/02/11 02:24:23;;;;;;;29.83;19.43;;;9.10;99.90;;;;;;5044794;28;20217;-82
2024/02/11 02:26:50;;;;;;;31.43;21.77;;;9.10;99.90;;;;;;5050490;28;20212;-83
2024/02/11 02:29:16;;;;;;;31.40;21.97;;;9.10;99.90;;;;;;5055416;28;20207;-83
2024/02/11 02:31:43;;;;;;;30.33;20.37;;;9.10;99.90;;;;;;5048763;28;20253;-81
2024/02/11 02:34:10;;;;;;;30.70;21.03;;;9.10;99.90;;;;;;5055021;28;20199;-82
2024/02/11 02:36:37;;;;;;;30.60;20.90;;;9.10;99.90;;;;;;5049893;28;20293;-83
2024/02/11 02:39:05;;;;;;;29.33;20.57;;;9.10;99.90;;;;;;5055109;28;20223;-82
2024/02/11 02:41:33;;;;;;;30.77;20.73;;;9.10;99.90;;;;;;5055667;28;20199;-83
2024/02/11 02:43:59;;;;;;;30.07;21.40;;;9.10;99.90;;;;;;5055331;28;20276;-82
2024/02/11 02:46:28;;;;;;;29.67;19.90;;;9.20;99.90;;;;;;5038341;28;20207;-81
2024/02/11 02:48:55;;;;;;;30.20;20.63;;;9.10;99.90;;;;;;5050594;28;20242;-83
2024/02/11 02:51:22;;;;;;;31.47;20.37;;;9.00;99.90;;;;;;5055119;28;20229;-82
2024/02/11 02:53:50;;;;;;;33.13;21.07;;;9.00;99.90;;;;;;5055219;28;20199;-80
2024/02/11 02:56:18;;;;;;;31.57;22.27;;;9.30;99.90;;;;;;5047148;28;20204;-82
2024/02/11 02:58:45;;;;;;;33.20;21.67;;;9.00;99.90;;;;;;5041694;28;20223;-82
2024/02/11 03:01:19;;;;;;;33.80;21.37;;;9.00;99.90;;;;;;5055701;28;20688;-82
2024/02/11 03:03:46;;;;;;;33.23;22.13;;;9.20;99.90;;;;;;5046850;28;20207;-82
2024/02/11 03:06:13;;;;;;;30.87;20.83;;;9.20;99.90;;;;;;5055611;28;20246;-82
2024/02/11 03:08:40;;;;;;;32.57;21.27;;;9.00;99.90;;;;;;5054565;28;20231;-83
2024/02/11 03:11:07;;;;;;;32.03;21.17;;;9.00;99.90;;;;;;5054685;28;20195;-83
2024/02/11 03:13:35;;;;;;;32.57;20.93;;;9.00;99.90;;;;;;5054918;28;20648;-84
2024/02/11 03:16:02;;;;;;;37.00;21.90;;;9.00;99.90;;;;;;5054904;28;20212;-83
2024/02/11 03:18:28;;;;;;;35.80;24.10;;;8.90;99.90;;;;;;5054393;28;20225;-83
2024/02/11 03:20:55;;;;;;;33.63;21.90;;;9.00;99.90;;;;;;5054473;28;20207;-81
2024/02/11 03:23:22;;;;;;;34.20;23.30;;;9.20;99.90;;;;;;5051597;28;20199;-82
2024/02/11 03:25:50;;;;;;;36.73;23.73;;;9.00;99.90;;;;;;5042736;28;20202;-81
2024/02/11 03:28:17;;;;;;;33.37;22.00;;;9.00;99.90;;;;;;5046725;28;20223;-82
2024/02/11 03:30:45;;;;;;;36.57;24.03;;;9.00;99.90;;;;;;5052553;28;20214;-82
2024/02/11 03:33:12;;;;;;;34.10;23.43;;;9.10;99.90;;;;;;5054309;28;20245;-81
2024/02/11 03:35:40;;;;;;;34.77;23.07;;;9.00;99.90;;;;;;5054675;28;20203;-81
2024/02/11 03:38:07;;;;;;;35.10;22.40;;;8.90;99.90;;;;;;5054876;28;20230;-82
2024/02/11 03:40:34;;;;;;;33.07;22.00;;;9.00;99.90;;;;;;5055422;28;20199;-81
2024/02/11 03:43:01;;;;;;;34.50;22.53;;;9.00;99.90;;;;;;5054482;28;20629;-80
2024/02/11 03:45:28;;;;;;;37.27;24.03;;;9.00;99.90;;;;;;5054192;28;20215;-80
2024/02/11 03:47:56;;;;;;;36.43;23.70;;;9.00;99.90;;;;;;5049106;28;20705;-80
2024/02/11 03:50:23;;;;;;;38.83;24.00;;;9.00;99.90;;;;;;5048612;28;20203;-80
2024/02/11 03:52:50;;;;;;;38.07;23.43;;;9.00;99.90;;;;;;5036479;28;20300;-81
2024/02/11 03:55:17;;;;;;;39.30;25.30;;;9.00;99.90;;;;;;5048915;28;20203;-81
2024/02/11 03:57:43;;;;;;;38.87;23.63;;;9.10;99.90;;;;;;5053547;28;20660;-81
2024/02/11 04:00:14;;;;;;;40.07;24.20;;;9.20;99.90;;;;;;5047142;28;20690;-80
2024/02/11 04:02:42;;;;;;;41.40;25.27;;;9.10;99.90;;;;;;5051740;28;20199;-82
2024/02/11 04:05:12;;;;;;;37.27;23.70;;;9.10;99.90;;;;;;5055213;28;20199;-82
2024/02/11 04:07:45;;;;;;;37.40;23.03;;;9.10;99.90;;;;;;5058747;28;20717;-82
2024/02/11 04:10:18;;;;;;;38.00;25.57;;;9.10;99.90;;;;;;5059174;28;20634;-81
2024/02/11 04:12:46;;;;;;;39.07;25.33;;;9.20;99.90;;;;;;5059021;28;20223;-81
2024/02/11 04:15:15;;;;;;;40.07;25.50;;;9.30;99.90;;;;;;5060251;28;20218;-80
2024/02/11 04:17:42;;;;;;;38.87;24.67;;;9.20;99.90;;;;;;5059854;28;20234;-81
2024/02/11 04:20:15;;;;;;;38.13;24.23;;;9.20;99.90;;;;;;5045819;28;20214;-82
2024/02/11 04:22:43;;;;;;;41.50;26.53;;;9.20;99.90;;;;;;5050900;28;20587;-82
2024/02/11 04:25:12;;;;;;;38.27;24.90;;;9.20;99.90;;;;;;5056898;28;20565;-80
2024/02/11 04:27:40;;;;;;;41.70;25.37;;;9.30;99.90;;;;;;5058816;28;20227;-81
2024/02/11 04:30:12;;;;;;;41.13;26.97;;;9.30;99.90;;;;;;5052666;28;20250;-82
2024/02/11 04:32:41;;;;;;;42.00;25.33;;;9.30;99.90;;;;;;5052760;28;20214;-81
2024/02/11 04:35:12;;;;;;;40.10;24.23;;;9.30;99.90;;;;;;5052280;28;20199;-80
2024/02/11 04:37:40;;;;;;;38.93;25.00;;;9.30;99.90;;;;;;5048886;28;20282;-81
2024/02/11 04:40:10;;;;;;;39.97;25.47;;;9.30;99.90;;;;;;5059815;28;20195;-81
2024/02/11 04:42:41;;;;;;;39.60;25.77;;;9.30;99.90;;;;;;5047124;28;20252;-81
2024/02/11 04:45:09;;;;;;;39.57;25.70;;;9.30;99.90;;;;;;5053602;28;20210;-81
2024/02/11 04:47:36;;;;;;;39.80;24.90;;;9.30;99.90;;;;;;5042924;28;20690;-82
2024/02/11 04:50:05;;;;;;;38.43;25.10;;;9.30;99.90;;;;;;5053459;28;20199;-82
2024/02/11 04:52:33;;;;;;;38.20;25.00;;;9.30;99.90;;;;;;5049165;28;20223;-82
2024/02/11 04:55:00;;;;;;;39.23;25.00;;;9.30;99.90;;;;;;5049609;28;20250;-82
2024/02/11 04:57:26;;;;;;;37.67;23.97;;;9.30;99.90;;;;;;5049531;28;20215;-81
2024/02/11 04:59:53;;;;;;;36.20;23.67;;;9.40;99.90;;;;;;5054987;28;20322;-81
2024/02/11 05:02:20;;;;;;;39.30;25.20;;;9.30;99.90;;;;;;5057073;28;20201;-80
2024/02/11 05:04:47;;;;;;;42.77;26.60;;;9.30;99.90;;;;;;5049739;28;20657;-80
2024/02/11 05:07:14;;;;;;;41.73;26.17;;;9.20;99.90;;;;;;5058370;28;20218;-81
2024/02/11 05:09:45;;;;;;;41.73;25.97;;;9.20;99.90;;;;;;5059080;28;20207;-83
2024/02/11 05:12:12;;;;;;;40.63;24.73;;;9.20;99.90;;;;;;5062598;28;20227;-84
2024/02/11 05:14:40;;;;;;;39.77;25.37;;;9.10;99.90;;;;;;5058985;28;20195;-82
2024/02/11 05:17:08;;;;;;;41.80;25.87;;;9.10;99.90;;;;;;5058613;28;20203;-84
2024/02/11 05:19:35;;;;;;;39.63;24.73;;;9.10;99.90;;;;;;5058649;28;20202;-84
2024/02/11 05:22:04;;;;;;;40.30;25.93;;;9.10;99.90;;;;;;5039290;28;20303;-83
2024/02/11 05:24:31;;;;;;;39.30;24.20;;;9.10;99.90;;;;;;5051332;28;20272;-83
2024/02/11 05:26:59;;;;;;;42.03;26.67;;;9.10;99.90;;;;;;5059216;28;20234;-81
2024/02/11 05:29:26;;;;;;;38.30;25.60;;;9.00;99.90;;;;;;5059322;28;20202;-82
2024/02/11 05:31:53;;;;;;;39.17;25.20;;;9.40;99.90;;;;;;5058372;28;20290;-81
2024/02/11 05:34:21;;;;;;;38.23;24.40;;;9.10;99.90;;;;;;5051073;28;20269;-81
2024/02/11 05:36:48;;;;;;;39.67;24.80;;;9.10;99.90;;;;;;5051693;28;20299;-81
2024/02/11 05:39:15;;;;;;;41.13;25.80;;;9.30;99.90;;;;;;5059561;28;20309;-81
2024/02/11 05:41:45;;;;;;;41.17;27.07;;;9.00;99.90;;;;;;5057794;28;20298;-81
2024/02/11 05:44:13;;;;;;;36.73;25.13;;;9.00;99.90;;;;;;5049452;28;20199;-81
2024/02/11 05:46:40;;;;;;;39.23;24.80;;;9.00;99.90;;;;;;5062406;28;20290;-81
2024/02/11 05:49:08;;;;;;;38.77;24.87;;;9.00;99.90;;;;;;5067195;28;20222;-81
2024/02/11 05:51:34;;;;;;;38.93;25.37;;;9.00;99.90;;;;;;5053514;28;20646;-82
2024/02/11 05:54:02;;;;;;;39.83;25.30;;;9.00;99.90;;;;;;5051608;28;20220;-81
2024/02/11 05:56:31;;;;;;;40.57;25.50;;;8.90;99.90;;;;;;5044903;28;20202;-82
2024/02/11 05:58:57;;;;;;;41.33;25.97;;;8.90;99.90;;;;;;5050329;28;20223;-82
2024/02/11 06:01:25;;;;;;;40.20;26.20;;;8.90;99.90;;;;;;5044665;28;20207;-82
2024/02/11 06:03:52;;;;;;;40.40;25.67;;;8.90;99.90;;;;;;5057292;28;20585;-82
2024/02/11 06:06:19;;;;;;;43.27;26.77;;;9.00;99.90;;;;;;5057580;28;20289;-81
2024/02/11 06:08:46;;;;;;;42.20;25.63;;;8.90;99.90;;;;;;5051222;28;20231;-82
2024/02/11 06:11:13;;;;;;;39.20;25.43;;;8.90;99.90;;;;;;5054511;28;20199;-82
2024/02/11 06:13:40;;;;;;;41.57;25.87;;;8.90;99.90;;;;;;5050238;28;20223;-82
2024/02/11 06:16:07;;;;;;;44.23;26.40;;;8.90;99.90;;;;;;5050646;28;20222;-82
2024/02/11 06:18:35;;;;;;;42.90;27.13;;;8.90;99.90;;;;;;5056169;28;20707;-80
2024/02/11 06:21:02;;;;;;;40.70;25.10;;;8.90;99.90;;;;;;5054740;28;20322;-83
2024/02/11 06:23:29;;;;;;;44.63;26.67;;;8.80;99.90;;;;;;5050530;28;20206;-81
2024/02/11 06:26:02;;;;;;;44.83;26.70;;;8.80;99.90;;;;;;5054485;28;20588;-81
2024/02/11 06:28:29;;;;;;;42.60;25.93;;;8.80;99.90;;;;;;5060250;28;20241;-81
2024/02/11 06:30:56;;;;;;;41.53;25.63;;;8.80;99.90;;;;;;5054839;28;20203;-80
2024/02/11 06:33:23;;;;;;;44.30;26.97;;;8.70;99.90;;;;;;5054451;28;20221;-81
2024/02/11 06:35:51;;;;;;;44.13;25.70;;;8.70;99.90;;;;;;5037886;28;20304;-82
2024/02/11 06:38:17;;;;;;;45.70;27.17;;;8.70;99.90;;;;;;5039654;28;20226;-82
2024/02/11 06:40:45;;;;;;;45.07;28.67;;;9.00;99.90;;;;;;5049266;28;20826;-82
2024/02/11 06:43:12;;;;;;;46.30;25.57;;;8.60;99.90;;;;;;5055145;28;20237;-81
2024/02/11 06:45:45;;;;;;;47.73;26.53;;;8.60;99.90;;;;;;5048588;28;20207;-81
2024/02/11 06:48:12;;;;;;;44.13;27.00;;;8.60;99.90;;;;;;5046264;28;20223;-81
2024/02/11 06:50:40;;;;;;;46.37;28.43;;;8.60;99.90;;;;;;5043818;28;20207;-82
2024/02/11 06:53:08;;;;;;;43.60;25.77;;;8.60;99.90;;;;;;5053177;28;20583;-82
2024/02/11 06:55:36;;;;;;;48.33;28.03;;;8.60;99.90;;;;;;5053408;28;20289;-81
2024/02/11 06:58:03;;;;;;;51.87;29.27;;;8.60;99.90;;;;;;5052723;28;20258;-81
2024/02/11 07:00:30;;;;;;;50.20;29.43;;;8.60;99.90;;;;;;5039687;28;20221;-82
2024/02/11 07:03:01;;;;;;;48.50;28.87;;;8.50;99.90;;;;;;5043465;28;20662;-80
2024/02/11 07:05:30;;;;;;;47.83;28.03;;;8.50;99.90;;;;;;5045426;28;20277;-82
2024/02/11 07:07:59;;;;;;;57.53;30.33;;;8.50;99.90;;;;;;5040640;28;20239;-81
2024/02/11 07:10:28;;;;;;;53.40;30.17;;;8.50;99.90;;;;;;5042322;28;20257;-81
2024/02/11 07:12:57;;;;;;;50.77;29.90;;;8.40;99.90;;;;;;5047927;28;20222;-81
2024/02/11 07:15:25;;;;;;;55.03;31.10;;;8.40;99.90;;;;;;5048830;28;20670;-81
2024/02/11 07:17:52;;;;;;;54.67;30.70;;;8.40;99.90;;;;;;5046430;28;20219;-81
2024/02/11 07:20:18;;;;;;;61.20;30.33;;;8.50;99.90;;;;;;5044526;28;20203;-81
2024/02/11 07:22:45;;;;;;;55.23;30.67;;;8.40;99.90;;;;;;5048234;28;20203;-83
2024/02/11 07:25:16;;;;;;;51.20;28.87;;;8.40;99.90;;;;;;5051880;28;20203;-81
2024/02/11 07:27:44;;;;;;;52.77;30.43;;;8.40;99.90;;;;;;5045871;28;20234;-82
2024/02/11 07:30:12;;;;;;;48.83;28.77;;;8.40;99.90;;;;;;5050372;28;20203;-81
2024/02/11 07:32:41;;;;;;;49.73;29.50;;;8.40;99.90;;;;;;5051762;28;20202;-83
2024/02/11 07:35:08;;;;;;;53.90;28.27;;;8.40;99.90;;;;;;5050474;28;20207;-83
2024/02/11 07:37:35;;;;;;;49.53;28.27;;;8.40;99.90;;;;;;5050094;28;20317;-82
2024/02/11 07:40:04;;;;;;;49.67;27.37;;;8.40;99.90;;;;;;5059608;28;20209;-82
2024/02/11 07:42:31;;;;;;;49.83;29.57;;;8.40;99.90;;;;;;5057339;28;20290;-84
2024/02/11 07:44:59;;;;;;;49.57;27.93;;;8.40;99.90;;;;;;5050104;28;20680;-83
2024/02/11 07:47:26;;;;;;;47.90;28.87;;;8.40;99.90;;;;;;5056110;28;20226;-82
2024/02/11 07:49:53;;;;;;;44.60;26.33;;;8.40;99.90;;;;;;5051390;28;20440;-82
2024/02/11 07:52:21;;;;;;;45.57;27.70;;;8.70;99.90;;;;;;5049203;28;20211;-82
2024/02/11 07:54:48;;;;;;;43.27;26.53;;;8.50;99.90;;;;;;5054451;28;20224;-81
2024/02/11 07:57:17;;;;;;;44.80;26.73;;;8.50;99.90;;;;;;5048411;28;20588;-81
2024/02/11 07:59:45;;;;;;;49.07;28.90;;;8.50;99.90;;;;;;5045508;28;20231;-82
2024/02/11 08:02:14;;;;;;;44.73;26.80;;;8.50;99.90;;;;;;5054507;28;20221;-82
2024/02/11 08:04:41;;;;;;;49.57;28.87;;;8.50;99.90;;;;;;5055133;28;20253;-82
2024/02/11 08:07:07;;;;;;;47.97;28.83;;;8.50;99.90;;;;;;5049545;28;20206;-82
2024/02/11 08:09:34;;;;;;;42.80;27.80;;;8.50;99.90;;;;;;5057652;28;20297;-81
2024/02/11 08:12:02;;;;;;;44.20;27.27;;;8.60;99.90;;;;;;5049041;28;20290;-82
2024/02/11 08:14:30;;;;;;;47.40;26.43;;;8.60;99.90;;;;;;5061158;28;20569;-81
2024/02/11 08:16:57;;;;;;;45.90;27.30;;;8.60;99.90;;;;;;5055112;28;20205;-83
2024/02/11 08:19:25;;;;;;;48.00;27.57;;;8.60;99.90;;;;;;5066696;28;20234;-82
2024/02/11 08:21:52;;;;;;;44.33;27.17;;;8.70;99.90;;;;;;5050092;28;20205;-82
2024/02/11 08:24:20;;;;;;;45.50;27.10;;;8.70;99.90;;;;;;5057991;28;20295;-81
2024/02/11 08:26:48;;;;;;;48.27;27.30;;;8.70;99.90;;;;;;5055123;28;20203;-82
2024/02/11 08:29:15;;;;;;;40.77;25.07;;;8.70;99.90;;;;;;5051699;28;20224;-82
2024/02/11 08:31:44;;;;;;;45.23;27.47;;;8.70;99.90;;;;;;5055182;28;20619;-83
2024/02/11 08:34:11;;;;;;;43.57;26.80;;;8.70;99.90;;;;;;5057412;28;20269;-82
2024/02/11 08:36:41;;;;;;;46.57;27.37;;;8.80;99.90;;;;;;5048642;28;20198;-83
2024/02/11 08:39:10;;;;;;;47.43;27.60;;;8.80;99.90;;;;;;5047414;28;20230;-83
2024/02/11 08:41:37;;;;;;;43.97;27.80;;;8.80;99.90;;;;;;5040955;28;20199;-82
2024/02/11 08:44:05;;;;;;;47.60;28.37;;;8.90;99.90;;;;;;5054485;28;20591;-81
2024/02/11 08:46:32;;;;;;;44.13;27.60;;;8.90;99.90;;;;;;5050243;28;20238;-82
2024/02/11 08:48:59;;;;;;;48.90;28.97;;;8.90;99.90;;;;;;5043872;28;20234;-81
2024/02/11 08:51:26;;;;;;;43.90;26.73;;;8.90;99.90;;;;;;5047100;28;20569;-81
2024/02/11 08:53:54;;;;;;;46.17;28.00;;;8.90;99.90;;;;;;5046105;28;20215;-81
2024/02/11 08:56:21;;;;;;;46.67;28.97;;;8.90;99.90;;;;;;5050957;28;20205;-81
2024/02/11 08:58:48;;;;;;;48.10;29.30;;;8.90;99.90;;;;;;5045697;28;20287;-80
2024/02/11 09:01:15;;;;;;;45.50;28.13;;;8.90;99.90;;;;;;5044993;28;20207;-81
2024/02/11 09:03:42;;;;;;;46.80;27.47;;;9.20;99.90;;;;;;5047105;28;20257;-80
2024/02/11 09:06:09;;;;;;;45.27;28.47;;;8.90;99.90;;;;;;5054951;28;20214;-81
2024/02/11 09:08:36;;;;;;;44.80;27.30;;;9.00;99.90;;;;;;5050678;28;20259;-81
2024/02/11 09:11:06;;;;;;;48.87;27.70;;;9.00;99.90;;;;;;5051754;28;20243;-81
2024/02/11 09:13:33;;;;;;;45.70;27.80;;;9.00;99.90;;;;;;5049634;28;20643;-81
2024/02/11 09:16:01;;;;;;;50.10;29.10;;;9.00;99.90;;;;;;5051884;28;20196;-80
2024/02/11 09:18:28;;;;;;;46.83;28.87;;;9.00;99.90;;;;;;5052540;28;20310;-81
2024/02/11 09:20:55;;;;;;;51.47;30.23;;;9.00;99.90;;;;;;5055025;28;20266;-80
2024/02/11 09:23:22;;;;;;;54.23;33.07;;;9.00;99.90;;;;;;5052823;28;20246;-84
2024/02/11 09:25:49;;;;;;;54.33;31.60;;;9.00;99.90;;;;;;5051188;28;20553;-81
2024/02/11 09:28:20;;;;;;;56.70;31.47;;;8.90;99.90;;;;;;5055318;28;20227;-82
2024/02/11 09:30:46;;;;;;;52.67;30.97;;;8.90;99.90;;;;;;5059513;28;20198;-81
2024/02/11 09:33:13;;;;;;;59.10;32.53;;;8.90;99.90;;;;;;5057142;28;20207;-80
2024/02/11 09:35:40;;;;;;;59.60;33.07;;;8.90;99.90;;;;;;5055506;28;20206;-81
2024/02/11 09:38:07;;;;;;;62.27;33.63;;;8.90;99.90;;;;;;5047435;28;20241;-81
2024/02/11 09:40:35;;;;;;;54.90;29.40;;;8.90;99.90;;;;;;5057533;28;20548;-81
2024/02/11 09:43:03;;;;;;;56.17;30.97;;;8.80;99.90;;;;;;5060038;28;20203;-81
2024/02/11 09:45:33;;;;;;;54.87;30.90;;;9.10;99.90;;;;;;5047312;28;20213;-82
2024/02/11 09:48:04;;;;;;;55.53;30.67;;;8.80;99.90;;;;;;5052956;28;20601;-81
2024/02/11 09:50:32;;;;;;;55.83;30.07;;;8.70;99.90;;;;;;5054776;28;20228;-82
2024/02/11 09:52:59;;;;;;;61.73;32.47;;;8.70;99.90;;;;;;5056158;28;20234;-83
2024/02/11 09:55:26;;;;;;;53.33;29.70;;;8.90;99.90;;;;;;5049146;28;20229;-81
2024/02/11 09:57:53;;;;;;;51.30;29.10;;;8.70;99.90;;;;;;5052497;28;20310;-82
2024/02/11 10:00:21;;;;;;;53.37;30.27;;;8.70;99.90;;;;;;5049698;28;20290;-82
2024/02/11 10:02:50;;;;;;;52.60;29.57;;;8.70;99.90;;;;;;5049640;28;20203;-81
2024/02/11 10:05:19;;;;;;;53.03;29.80;;;8.80;99.90;;;;;;5050808;28;20242;-81
2024/02/11 10:07:46;;;;;;;53.07;29.70;;;8.70;99.90;;;;;;5053758;28;20231;-81
2024/02/11 10:10:14;;;;;;;58.23;30.67;;;8.70;99.90;;;;;;5054934;28;20238;-82
2024/02/11 10:12:42;;;;;;;56.47;31.30;;;8.70;99.90;;;;;;5057019;28;20205;-81
2024/02/11 10:15:13;;;;;;;57.57;30.97;;;8.70;99.90;;;;;;5051691;28;20221;-82
2024/02/11 10:17:41;;;;;;;59.93;31.40;;;8.70;99.90;;;;;;5055557;28;20230;-82
2024/02/11 10:20:12;;;;;;;52.27;28.70;;;8.70;99.90;;;;;;5053296;28;20207;-82
2024/02/11 10:22:38;;;;;;;52.63;28.97;;;8.80;99.90;;;;;;5057243;28;20262;-82
2024/02/11 10:25:09;;;;;;;53.27;30.30;;;8.80;99.90;;;;;;5051604;28;20205;-81
2024/02/11 10:27:35;;;;;;;50.03;29.00;;;8.90;99.90;;;;;;5052545;28;20746;-81
2024/02/11 10:30:05;;;;;;;52.93;29.10;;;8.90;99.90;;;;;;5050270;28;20223;-81
2024/02/11 10:32:35;;;;;;;49.93;27.60;;;8.90;99.90;;;;;;5052346;28;20289;-81
2024/02/11 10:35:04;;;;;;;46.00;26.53;;;8.90;99.90;;;;;;5054385;28;20261;-81
2024/02/11 10:37:38;;;;;;;46.20;26.47;;;9.00;99.90;;;;;;5048134;28;20218;-81
2024/02/11 10:40:08;;;;;;;49.00;26.47;;;9.00;99.90;;;;;;5052009;28;20669;-81
2024/02/11 10:42:35;;;;;;;47.87;26.47;;;9.00;99.90;;;;;;5052569;28;20206;-81
2024/02/11 10:45:03;;;;;;;46.73;27.53;;;9.00;99.90;;;;;;5049392;28;20206;-82
2024/02/11 10:47:30;;;;;;;45.40;27.20;;;9.10;99.90;;;;;;5037411;28;20242;-82
2024/02/11 10:49:57;;;;;;;44.83;27.27;;;9.10;99.90;;;;;;5036246;28;20681;-81
2024/02/11 10:52:27;;;;;;;44.90;26.90;;;9.10;99.90;;;;;;5043994;28;20203;-81
2024/02/11 10:55:00;;;;;;;46.73;25.50;;;9.20;99.90;;;;;;5043900;28;20223;-82
2024/02/11 10:57:35;;;;;;;46.53;27.50;;;9.20;99.90;;;;;;5046170;28;20238;-82
2024/02/11 11:00:02;;;;;;;42.77;26.17;;;9.20;99.90;;;;;;5043984;28;20214;-81
2024/02/11 11:02:34;;;;;;;43.13;25.57;;;9.20;99.90;;;;;;5050225;28;20563;-81
2024/02/11 11:05:03;;;;;;;45.03;27.33;;;9.20;99.90;;;;;;5048805;28;20836;-82
2024/02/11 11:07:35;;;;;;;42.57;25.80;;;9.30;99.90;;;;;;5044987;28;20227;-81
2024/02/11 11:10:10;;;;;;;45.37;25.40;;;9.30;99.90;;;;;;5045411;28;20210;-82
2024/02/11 11:12:37;;;;;;;43.60;24.33;;;9.30;99.90;;;;;;5046287;28;20202;-81
2024/02/11 11:15:11;;;;;;;44.40;27.20;;;9.30;99.90;;;;;;5048765;28;20227;-82
2024/02/11 11:17:38;;;;;;;41.10;26.13;;;9.30;99.90;;;;;;5051342;28;20250;-80
2024/02/11 11:20:12;;;;;;;43.73;25.90;;;9.40;99.90;;;;;;5051753;28;20203;-81
2024/02/11 11:22:40;;;;;;;41.37;25.80;;;9.40;99.90;;;;;;5051228;28;20203;-81
2024/02/11 11:25:12;;;;;;;40.60;24.60;;;9.50;99.90;;;;;;5042000;28;20274;-83
2024/02/11 11:27:39;;;;;;;41.00;24.70;;;9.50;99.90;;;;;;5044549;28;20296;-82
2024/02/11 11:30:09;;;;;;;42.30;24.73;;;9.50;99.90;;;;;;5047825;28;20211;-83
2024/02/11 11:32:39;;;;;;;40.50;23.63;;;9.50;99.90;;;;;;5048553;28;20291;-83
2024/02/11 11:35:07;;;;;;;39.23;24.80;;;9.70;99.90;;;;;;5051861;28;20665;-82
2024/02/11 11:37:33;;;;;;;44.93;27.03;;;9.50;99.90;;;;;;5046230;28;20230;-83
2024/02/11 11:40:00;;;;;;;40.17;24.97;;;9.50;99.90;;;;;;5055185;28;20195;-83
2024/02/11 11:42:28;;;;;;;38.13;24.20;;;9.40;99.90;;;;;;5051545;28;20203;-83
2024/02/11 11:45:07;;;;;;;39.83;24.67;;;9.50;99.90;;;;;;5044252;28;20211;-83
2024/02/11 11:47:34;;;;;;;39.40;25.33;;;9.40;99.90;;;;;;5047271;28;20318;-83
2024/02/11 11:50:01;;;;;;;39.97;23.90;;;9.30;99.90;;;;;;5053784;28;20199;-83
2024/02/11 11:52:29;;;;;;;41.43;25.10;;;9.40;99.90;;;;;;5048881;28;20207;-84
2024/02/11 11:54:57;;;;;;;42.17;25.40;;;9.40;99.90;;;;;;5049092;28;20219;-84
2024/02/11 11:57:23;;;;;;;39.17;25.17;;;9.40;99.90;;;;;;5044170;28;20223;-83
2024/02/11 11:59:58;;;;;;;43.27;26.20;;;9.40;99.90;;;;;;5050441;28;20211;-84
2024/02/11 12:02:26;;;;;;;40.50;23.97;;;9.30;99.90;;;;;;5044162;28;20195;-83
2024/02/11 12:04:53;;;;;;;37.67;23.33;;;9.50;99.90;;;;;;5045900;28;20267;-84
2024/02/11 12:07:21;;;;;;;37.60;24.17;;;9.50;99.90;;;;;;5050006;28;20228;-84
2024/02/11 12:09:50;;;;;;;41.20;24.37;;;9.50;99.90;;;;;;5044447;28;20298;-84
2024/02/11 12:12:17;;;;;;;39.80;23.57;;;9.50;99.90;;;;;;5047863;28;20283;-83
2024/02/11 12:14:45;;;;;;;39.07;24.57;;;9.50;99.90;;;;;;5054802;28;20229;-83
2024/02/11 12:17:13;;;;;;;41.43;24.13;;;9.50;99.90;;;;;;5048047;28;20704;-85
2024/02/11 12:19:43;;;;;;;42.80;23.63;;;9.50;99.90;;;;;;5048030;28;20208;-83
2024/02/11 12:22:10;;;;;;;40.03;24.17;;;9.50;99.90;;;;;;5048247;28;20212;-84
2024/02/11 12:24:41;;;;;;;38.17;23.50;;;9.60;99.90;;;;;;5053563;28;20197;-83
2024/02/11 12:27:11;;;;;;;37.30;23.77;;;9.50;99.90;;;;;;5055137;28;20226;-84
2024/02/11 12:29:38;;;;;;;37.27;23.97;;;9.60;99.90;;;;;;5047870;28;20294;-84
2024/02/11 12:32:05;;;;;;;38.93;24.83;;;9.60;99.90;;;;;;5049485;28;20206;-84
2024/02/11 12:34:34;;;;;;;38.33;24.63;;;9.60;99.90;;;;;;5052785;28;20222;-84
2024/02/11 12:37:03;;;;;;;38.43;23.63;;;9.60;99.90;;;;;;5047530;28;20298;-84
2024/02/11 12:39:31;;;;;;;35.63;23.47;;;9.70;99.90;;;;;;5056472;28;20211;-82